TimeEST,TemperatureF,Dew PointF,Humidity,Sea Level PressureIn,VisibilityMPH,Wind Direction,Wind SpeedMPH,Gust SpeedMPH,PrecipitationIn,Events,Conditions,WindDirDegrees,DateUTC
12:51 AM,46.9,28.9,50,30.23,10.0,North,4.6,-,N/A,,Clear,350,2013-03-08 05:51:00
1:51 AM,45.0,30.0,56,30.25,10.0,Calm,Calm,-,N/A,,Clear,0,2013-03-08 06:51:00
2:51 AM,43.0,30.0,60,30.25,10.0,North,3.5,-,N/A,,Clear,360,2013-03-08 07:51:00
3:51 AM,41.0,30.0,65,30.23,10.0,Calm,Calm,-,N/A,,Clear,0,2013-03-08 08:51:00
4:51 AM,39.2,28.4,65,30.23,10.0,Calm,Calm,-,N/A,,Clear,0,2013-03-08 09:51:00
5:51 AM,39.0,28.9,67,30.26,10.0,Calm,Calm,-,N/A,,Clear,0,2013-03-08 10:51:00
6:51 AM,37.9,28.0,68,30.27,10.0,Calm,Calm,-,N/A,,Clear,0,2013-03-08 11:51:00
7:51 AM,39.0,28.0,65,30.29,10.0,NNE,4.6,-,N/A,,Clear,30,2013-03-08 12:51:00
8:51 AM,44.1,28.9,55,30.30,10.0,ENE,5.8,-,N/A,,Clear,70,2013-03-08 13:51:00
9:51 AM,48.0,28.9,48,30.32,10.0,East,6.9,-,N/A,,Clear,90,2013-03-08 14:51:00
10:51 AM,53.6,30.2,41,30.31,10.0,ESE,3.5,-,N/A,,Clear,110,2013-03-08 15:51:00
11:51 AM,57.2,30.2,36,30.31,10.0,Calm,Calm,-,N/A,,Clear,0,2013-03-08 16:51:00
12:51 PM,61.0,28.9,30,30.27,10.0,Variable,5.8,-,N/A,,Clear,0,2013-03-08 17:51:00
1:51 PM,64.0,28.0,26,30.23,10.0,Calm,Calm,-,N/A,,Clear,0,2013-03-08 18:51:00
2:51 PM,66.9,28.0,23,30.22,10.0,Calm,Calm,-,N/A,,Clear,0,2013-03-08 19:51:00
3:51 PM,69.1,27.0,21,30.20,10.0,Calm,Calm,-,N/A,,Clear,0,2013-03-08 20:51:00
4:51 PM,70.0,26.1,19,30.19,10.0,North,3.5,-,N/A,,Clear,10,2013-03-08 21:51:00
5:51 PM,69.1,26.1,20,30.20,9.0,North,6.9,-,N/A,,Clear,350,2013-03-08 22:51:00
6:51 PM,64.9,28.0,25,30.22,8.0,North,5.8,-,N/A,,Clear,350,2013-03-08 23:51:00
7:51 PM,61.0,30.0,31,30.23,10.0,Calm,Calm,-,N/A,,Clear,0,2013-03-09 00:51:00
8:51 PM,55.9,32.0,40,30.23,10.0,Calm,Calm,-,N/A,,Clear,0,2013-03-09 01:51:00
9:51 PM,53.1,34.0,48,30.24,10.0,Calm,Calm,-,N/A,,Clear,0,2013-03-09 02:51:00
10:51 PM,52.0,35.1,53,30.24,10.0,Calm,Calm,-,N/A,,Clear,0,2013-03-09 03:51:00
11:51 PM,51.1,34.0,52,30.23,10.0,Calm,Calm,-,N/A,,Clear,0,2013-03-09 04:51:00